Time;durP1;ratioP1;P1;durP2;ratioP2;P2;SDS_P1;SDS_P2;PMS_P1;PMS_P2;Temp;Humidity;BMP_temperature;BMP_pressure;BME280_temperature;BME280_humidity;BME280_pressure;Samples;Min_cycle;Max_cycle;Signal;HPM_P1;HPM_P2
2023/07/31 00:02:14;;;;;;;;;;;15.70;99.90;;;;;;12513343;28;19921;-45
2023/07/31 00:08:16;;;;;;;;;;;15.70;99.90;;;;;;12515557;28;19928;-44
2023/07/31 00:14:19;;;;;;;;;;;15.60;99.90;;;;;;12515761;28;19920;-45
2023/07/31 00:20:22;;;;;;;;;;;15.60;99.90;;;;;;12526181;28;19921;-45
2023/07/31 00:26:24;;;;;;;;;;;15.50;99.90;;;;;;12509736;28;19921;-44
2023/07/31 00:32:27;;;;;;;;;;;15.50;99.90;;;;;;12518498;28;20019;-44
2023/07/31 00:38:30;;;;;;;;;;;15.50;99.90;;;;;;12515809;28;19924;-45
2023/07/31 00:44:32;;;;;;;;;;;15.40;99.90;;;;;;12513658;28;19931;-44
2023/07/31 00:50:36;;;;;;;;;;;15.40;99.90;;;;;;12521669;28;19921;-44
2023/07/31 00:56:38;;;;;;;;;;;15.50;99.90;;;;;;12513467;28;20289;-44
2023/07/31 01:02:42;;;;;;;;;;;15.50;99.90;;;;;;12509759;28;19925;-44
2023/07/31 01:08:58;;;;;;;;;;;15.50;99.90;;;;;;12516292;28;19951;-44
2023/07/31 01:15:02;;;;;;;;;;;15.60;99.90;;;;;;12500610;28;19925;-44
2023/07/31 01:21:26;;;;;;;;;;;15.50;99.90;;;;;;12494880;28;19925;-44
2023/07/31 01:27:31;;;;;;;;;;;15.50;99.90;;;;;;12461967;28;20669;-45
2023/07/31 01:33:34;;;;;;;;;;;15.50;99.90;;;;;;12513199;28;19924;-44
2023/07/31 01:39:37;;;;;;;;;;;15.50;99.90;;;;;;12535191;28;20297;-45
2023/07/31 01:45:40;;;;;;;;;;;15.60;99.90;;;;;;12518397;28;20297;-45
2023/07/31 01:51:43;;;;;;;;;;;15.50;99.90;;;;;;12517703;28;19967;-45
2023/07/31 01:57:46;;;;;;;;;;;15.50;99.90;;;;;;12515803;28;19990;-45
2023/07/31 02:03:48;;;;;;;;;;;15.50;99.90;;;;;;12511335;28;20051;-44
2023/07/31 02:09:51;;;;;;;;;;;15.40;99.90;;;;;;12514857;28;19927;-44
2023/07/31 02:15:55;;;;;;;;;;;15.20;99.90;;;;;;12500231;28;19921;-44
2023/07/31 02:21:57;;;;;;;;;;;15.20;99.90;;;;;;12514530;28;19928;-44
2023/07/31 02:28:00;;;;;;;;;;;15.10;99.90;;;;;;12517754;28;19970;-44
2023/07/31 02:34:02;;;;;;;;;;;15.20;99.90;;;;;;12511216;28;20028;-45
2023/07/31 02:40:05;;;;;;;;;;;15.10;99.90;;;;;;12526548;28;19932;-44
2023/07/31 02:46:08;;;;;;;;;;;15.10;99.90;;;;;;12498054;28;19974;-44
2023/07/31 02:52:10;;;;;;;;;;;15.00;99.90;;;;;;12514951;28;20350;-44
2023/07/31 02:58:13;;;;;;;;;;;15.00;99.90;;;;;;12522514;28;20300;-45
2023/07/31 03:04:15;;;;;;;;;;;14.90;99.90;;;;;;12507133;28;20252;-44
2023/07/31 03:10:19;;;;;;;;;;;14.80;99.90;;;;;;12508467;28;20015;-44
2023/07/31 03:16:22;;;;;;;;;;;14.70;99.90;;;;;;12512703;28;19924;-44
2023/07/31 03:22:26;;;;;;;;;;;14.70;99.90;;;;;;12509112;28;19921;-44
2023/07/31 03:28:29;;;;;;;;;;;14.60;99.90;;;;;;12514330;28;20024;-45
2023/07/31 03:34:33;;;;;;;;;;;14.60;99.90;;;;;;12534512;28;20296;-44
2023/07/31 03:40:36;;;;;;;;;;;14.60;99.90;;;;;;12523664;28;20066;-45
2023/07/31 03:46:39;;;;;;;;;;;14.60;99.90;;;;;;12525679;28;19969;-44
2023/07/31 03:52:42;;;;;;;;;;;14.60;99.90;;;;;;12509131;28;19971;-45
2023/07/31 03:58:44;;;;;;;;;;;14.60;99.90;;;;;;12505467;28;19921;-45
2023/07/31 04:04:48;;;;;;;;;;;14.70;99.90;;;;;;12509677;28;20374;-45
2023/07/31 04:10:51;;;;;;;;;;;14.80;99.90;;;;;;12504356;28;19970;-45
2023/07/31 04:16:53;;;;;;;;;;;14.90;99.90;;;;;;12504158;28;19978;-45
2023/07/31 04:22:56;;;;;;;;;;;14.90;99.90;;;;;;12501930;28;19921;-44
2023/07/31 04:28:59;;;;;;;;;;;15.00;99.90;;;;;;12512100;28;19925;-45
2023/07/31 04:35:03;;;;;;;;;;;15.10;99.90;;;;;;12500912;28;19967;-44
2023/07/31 04:41:06;;;;;;;;;;;15.20;99.90;;;;;;12502071;28;19976;-44
2023/07/31 04:47:10;;;;;;;;;;;15.20;99.90;;;;;;12511121;28;19925;-44
2023/07/31 04:53:15;;;;;;;;;;;15.30;99.90;;;;;;12519787;28;20328;-45
2023/07/31 04:59:18;;;;;;;;;;;15.30;99.90;;;;;;12509603;28;19928;-44
2023/07/31 05:05:20;;;;;;;;;;;15.30;99.90;;;;;;12516077;28;19964;-45
2023/07/31 05:11:23;;;;;;;;;;;15.30;99.90;;;;;;12492861;28;19928;-44
2023/07/31 05:17:25;;;;;;;;;;;15.30;99.90;;;;;;12503359;28;19932;-44
2023/07/31 05:23:27;;;;;;;;;;;15.30;99.90;;;;;;12515398;28;20392;-44
2023/07/31 05:29:29;;;;;;;;;;;15.30;99.90;;;;;;12500249;28;19943;-44
2023/07/31 05:35:32;;;;;;;;;;;15.30;99.90;;;;;;12511500;28;19921;-45
2023/07/31 05:41:38;;;;;;;;;;;15.20;99.90;;;;;;12518876;28;19986;-44
2023/07/31 05:47:44;;;;;;;;;;;15.20;99.90;;;;;;12520210;28;19971;-44
2023/07/31 05:53:47;;;;;;;;;;;15.20;99.90;;;;;;12509285;28;19924;-44
2023/07/31 05:59:49;;;;;;;;;;;15.20;99.90;;;;;;12524864;28;19929;-44
2023/07/31 06:05:52;;;;;;;;;;;15.20;99.90;;;;;;12483873;28;19952;-44
2023/07/31 06:11:57;;;;;;;;;;;15.20;99.90;;;;;;12518988;28;20343;-44
2023/07/31 06:18:01;;;;;;;;;;;15.30;99.90;;;;;;12510980;28;19921;-44
2023/07/31 06:24:12;;;;;;;;;;;15.40;99.90;;;;;;12500359;28;20377;-44
2023/07/31 06:56:56;;;;;;;;;;;15.40;99.90;;;;;;12514965;28;19920;-35
2023/07/31 07:02:58;;;;;;;;;;;15.40;99.90;;;;;;12508605;28;19972;-35
2023/07/31 07:08:59;;;;;;;;;;;15.30;99.90;;;;;;12502618;28;19920;-35
2023/07/31 07:15:02;;;;;;;;;;;15.20;99.90;;;;;;12512326;28;19925;-35
2023/07/31 07:21:04;;;;;;;;;;;15.30;99.90;;;;;;12506155;28;19971;-36
2023/07/31 07:27:06;;;;;;;;;;;15.40;99.90;;;;;;12497709;28;20019;-37
2023/07/31 07:33:08;;;;;;;;;;;15.50;99.90;;;;;;12529713;28;19928;-35
2023/07/31 07:39:11;;;;;;;;;;;15.60;99.90;;;;;;12514108;28;20284;-35
2023/07/31 07:45:13;;;;;;;;;;;15.90;99.90;;;;;;12522245;28;20348;-36
2023/07/31 07:51:14;;;;;;;;;;;16.00;99.90;;;;;;12502691;28;20330;-37
2023/07/31 07:57:16;;;;;;;;;;;15.90;99.90;;;;;;12503005;28;19956;-37
2023/07/31 08:03:18;;;;;;;;;;;15.80;99.90;;;;;;12495966;28;20015;-36
2023/07/31 08:09:21;;;;;;;;;;;15.70;99.90;;;;;;12504277;28;20357;-36
2023/07/31 08:15:22;;;;;;;;;;;15.70;99.90;;;;;;12513700;28;20400;-36
2023/07/31 08:21:24;;;;;;;;;;;15.60;99.90;;;;;;12485146;28;19954;-36
2023/07/31 08:27:26;;;;;;;;;;;15.70;99.90;;;;;;12428377;28;19925;-35
2023/07/31 08:33:27;;;;;;;;;;;15.70;99.90;;;;;;12497510;28;20015;-35
2023/07/31 08:39:29;;;;;;;;;;;15.80;99.90;;;;;;12489424;28;20288;-35
2023/07/31 08:45:32;;;;;;;;;;;15.80;99.90;;;;;;12494039;28;20011;-35
2023/07/31 08:51:34;;;;;;;;;;;15.90;99.90;;;;;;12498183;28;20343;-36
2023/07/31 08:57:37;;;;;;;;;;;15.90;99.90;;;;;;12500024;28;20260;-36
2023/07/31 09:03:39;;;;;;;;;;;16.00;99.90;;;;;;12505856;28;20043;-37
2023/07/31 09:09:41;;;;;;;;;;;16.10;99.90;;;;;;12505111;28;19928;-36
2023/07/31 09:15:43;;;;;;;;;;;16.30;99.90;;;;;;12495892;28;19971;-37
2023/07/31 09:21:48;;;;;;;;;;;16.40;99.90;;;;;;12482190;28;19963;-37
2023/07/31 09:27:51;;;;;;;;;;;16.60;99.90;;;;;;12509642;28;19921;-36
2023/07/31 09:33:56;;;;;;;;;;;16.60;99.90;;;;;;12489157;28;20019;-36
2023/07/31 09:39:58;;;;;;;;;;;16.60;99.90;;;;;;12490333;28;19928;-36
2023/07/31 09:46:00;;;;;;;;;;;16.60;99.90;;;;;;12493575;28;19925;-36
2023/07/31 09:52:11;;;;;;;;;;;16.60;99.90;;;;;;12504172;28;20300;-36
2023/07/31 09:58:13;;;;;;;;;;;16.60;99.90;;;;;;12494082;28;19972;-37
2023/07/31 10:04:19;;;;;;;;;;;16.70;99.90;;;;;;12497244;28;19972;-36
2023/07/31 10:10:22;;;;;;;;;;;16.70;99.90;;;;;;12497065;28;19925;-36
2023/07/31 10:16:24;;;;;;;;;;;16.70;99.90;;;;;;12499781;28;19929;-36
2023/07/31 10:22:25;;;;;;;;;;;16.70;99.90;;;;;;12483269;28;19959;-36
2023/07/31 10:28:29;;;;;;;;;;;16.70;99.90;;;;;;12491308;28;19921;-38
2023/07/31 10:34:31;;;;;;;;;;;16.70;99.90;;;;;;12496675;28;19925;-35
2023/07/31 10:40:34;;;;;;;;;;;16.70;99.90;;;;;;12508157;28;19988;-35
2023/07/31 10:46:36;;;;;;;;;;;16.70;99.90;;;;;;12505869;28;19966;-35
2023/07/31 10:52:38;;;;;;;;;;;16.70;99.90;;;;;;12488352;28;19925;-35
2023/07/31 10:58:43;;;;;;;;;;;16.70;99.90;;;;;;12487983;28;20375;-35
2023/07/31 11:05:05;;;;;;;;;;;16.80;99.90;;;;;;12502529;28;20372;-35
2023/07/31 11:11:10;;;;;;;;;;;16.90;99.90;;;;;;12486439;28;19925;-36
2023/07/31 11:17:12;;;;;;;;;;;16.70;99.90;;;;;;12478824;28;19920;-35
2023/07/31 11:23:16;;;;;;;;;;;16.70;99.90;;;;;;12488048;28;19921;-36
2023/07/31 11:29:18;;;;;;;;;;;16.70;99.90;;;;;;12496387;28;20245;-35
2023/07/31 11:35:20;;;;;;;;;;;16.60;99.90;;;;;;12492496;28;19921;-35
2023/07/31 11:41:22;;;;;;;;;;;16.60;99.90;;;;;;12508833;28;19931;-37
2023/07/31 11:47:25;;;;;;;;;;;16.70;99.90;;;;;;12503411;28;19921;-36
2023/07/31 11:53:38;;;;;;;;;;;16.60;99.90;;;;;;12501875;28;20441;-36
2023/07/31 11:59:40;;;;;;;;;;;16.80;99.90;;;;;;12494888;28;19951;-36
2023/07/31 12:05:42;;;;;;;;;;;16.80;99.90;;;;;;12496955;28;19928;-35
2023/07/31 12:11:47;;;;;;;;;;;16.80;99.90;;;;;;12492357;28;20391;-36
2023/07/31 12:17:49;;;;;;;;;;;16.70;99.90;;;;;;12490301;28;20066;-36
2023/07/31 12:23:51;;;;;;;;;;;17.10;99.90;;;;;;12499952;28;20452;-36
2023/07/31 12:29:53;;;;;;;;;;;17.30;99.90;;;;;;12482734;28;19920;-36
2023/07/31 12:35:54;;;;;;;;;;;17.30;99.90;;;;;;12498952;28;19959;-36
2023/07/31 12:41:56;;;;;;;;;;;17.20;99.90;;;;;;12494310;28;19952;-36
2023/07/31 12:47:58;;;;;;;;;;;17.20;99.90;;;;;;12483639;28;20388;-37
2023/07/31 12:54:00;;;;;;;;;;;17.20;99.90;;;;;;12507577;28;19928;-36
2023/07/31 13:00:05;;;;;;;;;;;17.10;99.90;;;;;;12496476;28;20524;-36
2023/07/31 13:06:07;;;;;;;;;;;17.10;99.90;;;;;;12473421;28;19963;-36
2023/07/31 13:12:09;;;;;;;;;;;17.10;99.90;;;;;;12492854;28;20015;-36
2023/07/31 13:18:10;;;;;;;;;;;17.00;99.90;;;;;;12503792;28;19956;-36
2023/07/31 13:24:12;;;;;;;;;;;16.90;99.90;;;;;;12485816;28;20364;-36
2023/07/31 13:30:15;;;;;;;;;;;16.90;99.90;;;;;;12464112;28;19960;-36
2023/07/31 13:36:17;;;;;;;;;;;16.90;99.90;;;;;;12495053;28;19929;-36
2023/07/31 13:42:19;;;;;;;;;;;17.00;99.90;;;;;;12513996;28;20023;-36
2023/07/31 13:48:21;;;;;;;;;;;17.00;99.90;;;;;;12497291;28;19924;-36
2023/07/31 13:54:23;;;;;;;;;;;17.00;99.90;;;;;;12494094;28;19924;-36
2023/07/31 14:00:25;;;;;;;;;;;17.20;99.90;;;;;;12498047;28;19928;-37
2023/07/31 14:06:27;;;;;;;;;;;17.40;99.90;;;;;;12503694;28;20343;-36
2023/07/31 14:12:30;;;;;;;;;;;17.50;99.90;;;;;;12506059;28;19932;-37
2023/07/31 14:18:43;;;;;;;;;;;17.70;99.90;;;;;;12455780;28;20388;-36
2023/07/31 14:24:45;;;;;;;;;;;17.80;99.90;;;;;;12504733;28;20175;-36
2023/07/31 14:30:47;;;;;;;;;;;17.70;99.90;;;;;;12513935;28;19929;-36
2023/07/31 14:36:49;;;;;;;;;;;17.70;99.90;;;;;;12492043;28;19921;-36
2023/07/31 14:42:51;;;;;;;;;;;17.80;99.90;;;;;;12514035;28;19920;-36
2023/07/31 14:48:52;;;;;;;;;;;17.70;99.90;;;;;;12517740;28;19924;-36
2023/07/31 14:54:54;;;;;;;;;;;17.80;99.90;;;;;;12516726;28;20411;-36
2023/07/31 15:00:56;;;;;;;;;;;17.80;99.90;;;;;;12508922;28;19951;-37
2023/07/31 15:06:58;;;;;;;;;;;17.80;99.90;;;;;;12488255;28;19927;-38
2023/07/31 15:13:01;;;;;;;;;;;17.80;99.90;;;;;;12510691;28;20951;-36
2023/07/31 15:19:02;;;;;;;;;;;17.90;99.90;;;;;;12529238;28;19921;-37
2023/07/31 15:25:04;;;;;;;;;;;18.00;99.90;;;;;;12478065;28;20168;-36
2023/07/31 15:31:06;;;;;;;;;;;18.10;99.90;;;;;;12496720;28;19932;-37
2023/07/31 15:37:08;;;;;;;;;;;18.20;99.90;;;;;;12503759;28;19928;-37
2023/07/31 15:43:10;;;;;;;;;;;18.30;99.90;;;;;;12511722;28;19928;-36
2023/07/31 15:49:13;;;;;;;;;;;18.20;99.90;;;;;;12510691;28;19982;-36
2023/07/31 15:55:15;;;;;;;;;;;18.10;99.90;;;;;;12506280;28;19921;-37
2023/07/31 16:01:17;;;;;;;;;;;18.00;99.90;;;;;;12512113;28;19925;-36
2023/07/31 16:07:20;;;;;;;;;;;18.10;99.90;;;;;;12489482;28;19925;-36
2023/07/31 16:13:22;;;;;;;;;;;18.00;99.90;;;;;;12522650;28;19920;-36
2023/07/31 16:19:23;;;;;;;;;;;18.00;99.90;;;;;;12511363;28;19924;-36
2023/07/31 16:25:28;;;;;;;;;;;17.90;99.90;;;;;;12505231;28;19928;-39
2023/07/31 16:31:30;;;;;;;;;;;17.60;99.90;;;;;;12520832;28;20010;-37
2023/07/31 16:37:47;;;;;;;;;;;17.40;99.90;;;;;;12524740;28;19929;-36
2023/07/31 16:43:49;;;;;;;;;;;17.30;99.90;;;;;;12521525;28;19921;-37
2023/07/31 16:49:51;;;;;;;;;;;17.40;99.90;;;;;;12513712;28;19924;-37
2023/07/31 16:55:53;;;;;;;;;;;17.40;99.90;;;;;;12500098;28;20019;-61
2023/07/31 17:01:56;;;;;;;;;;;17.40;99.90;;;;;;12510378;28;19964;-51
2023/07/31 17:08:16;;;;;;;;;;;17.40;99.90;;;;;;12479337;28;19975;-49
2023/07/31 17:14:17;;;;;;;;;;;17.50;99.90;;;;;;12490178;28;19956;-49
2023/07/31 17:20:19;;;;;;;;;;;17.50;99.90;;;;;;12512287;28;20379;-49
2023/07/31 17:26:22;;;;;;;;;;;17.50;99.90;;;;;;12512726;28;19924;-48
2023/07/31 17:32:24;;;;;;;;;;;17.50;99.90;;;;;;12502273;28;20388;-49
2023/07/31 17:38:26;;;;;;;;;;;17.50;99.90;;;;;;12515892;28;19929;-48
2023/07/31 17:44:28;;;;;;;;;;;17.50;99.90;;;;;;12496008;28;20024;-55
2023/07/31 17:50:31;;;;;;;;;;;17.40;99.90;;;;;;12480952;28;20195;-52
2023/07/31 17:56:37;;;;;;;;;;;17.50;99.90;;;;;;12485715;28;19921;-48
2023/07/31 18:02:40;;;;;;;;;;;17.40;99.90;;;;;;12487203;28;19925;-50
2023/07/31 18:08:42;;;;;;;;;;;17.40;99.90;;;;;;12508502;28;19989;-50
2023/07/31 18:14:43;;;;;;;;;;;17.20;99.90;;;;;;12517679;28;19973;-49
2023/07/31 18:20:45;;;;;;;;;;;17.20;99.90;;;;;;12506781;28;19932;-48
2023/07/31 18:26:47;;;;;;;;;;;17.10;99.90;;;;;;12512906;28;19921;-50
2023/07/31 18:32:50;;;;;;;;;;;17.10;99.90;;;;;;12510668;28;19932;-51
2023/07/31 18:38:51;;;;;;;;;;;17.00;99.90;;;;;;12514593;28;19935;-47
2023/07/31 18:44:53;;;;;;;;;;;17.00;99.90;;;;;;12507326;28;19970;-51
2023/07/31 18:50:55;;;;;;;;;;;16.90;99.90;;;;;;12500993;28;19931;-50
2023/07/31 18:56:57;;;;;;;;;;;16.90;99.90;;;;;;12485366;28;19920;-48
2023/07/31 19:02:59;;;;;;;;;;;16.80;99.90;;;;;;12504553;28;19921;-51
2023/07/31 19:09:01;;;;;;;;;;;16.80;99.90;;;;;;12496670;28;19928;-50
2023/07/31 19:15:03;;;;;;;;;;;16.80;99.90;;;;;;12461498;28;19921;-47
2023/07/31 19:21:05;;;;;;;;;;;16.80;99.90;;;;;;12505662;28;19995;-50
2023/07/31 19:27:06;;;;;;;;;;;16.80;99.90;;;;;;12512791;28;19921;-50
2023/07/31 19:33:08;;;;;;;;;;;16.70;99.90;;;;;;12487718;28;20215;-48
2023/07/31 19:39:10;;;;;;;;;;;16.70;99.90;;;;;;12489052;28;19974;-50
2023/07/31 19:45:12;;;;;;;;;;;16.70;99.90;;;;;;12501674;28;19921;-50
2023/07/31 19:51:14;;;;;;;;;;;16.70;99.90;;;;;;12495625;28;19939;-49
2023/07/31 19:57:16;;;;;;;;;;;16.60;99.90;;;;;;12504903;28;19924;-50
2023/07/31 20:03:20;;;;;;;;;;;16.60;99.90;;;;;;12496178;28;19924;-52
2023/07/31 20:09:22;;;;;;;;;;;16.50;99.90;;;;;;12516057;28;19932;-48
2023/07/31 20:15:24;;;;;;;;;;;16.50;99.90;;;;;;12528063;28;19924;-48
2023/07/31 20:21:26;;;;;;;;;;;16.50;99.90;;;;;;12504424;28;19921;-49
2023/07/31 20:27:27;;;;;;;;;;;16.50;99.90;;;;;;12516105;28;20299;-47
2023/07/31 20:33:29;;;;;;;;;;;16.50;99.90;;;;;;12490459;28;19928;-48
2023/07/31 20:39:31;;;;;;;;;;;16.40;99.90;;;;;;12506501;28;19925;-48
2023/07/31 20:45:37;;;;;;;;;;;16.40;99.90;;;;;;12504612;28;19946;-49
2023/07/31 20:51:42;;;;;;;;;;;16.30;99.90;;;;;;12476658;28;20523;-50
2023/07/31 20:57:43;;;;;;;;;;;16.30;99.90;;;;;;12468681;28;19979;-51
2023/07/31 21:03:45;;;;;;;;;;;16.30;99.90;;;;;;12488591;28;19924;-48
2023/07/31 21:09:47;;;;;;;;;;;16.30;99.90;;;;;;12511144;28;20585;-49
2023/07/31 21:15:49;;;;;;;;;;;16.30;99.90;;;;;;12492869;28;19952;-48
2023/07/31 21:21:51;;;;;;;;;;;16.30;99.90;;;;;;12499829;28;19924;-50
2023/07/31 21:27:53;;;;;;;;;;;16.20;99.90;;;;;;12479647;28;19940;-47
2023/07/31 21:33:55;;;;;;;;;;;16.20;99.90;;;;;;12485025;28;20287;-47
2023/07/31 21:39:56;;;;;;;;;;;16.20;99.90;;;;;;12509988;28;19970;-47
2023/07/31 21:45:58;;;;;;;;;;;16.20;99.90;;;;;;12498381;28;19994;-47
2023/07/31 21:52:00;;;;;;;;;;;16.20;99.90;;;;;;12497270;28;19928;-49
2023/07/31 21:58:02;;;;;;;;;;;16.20;99.90;;;;;;12479139;28;20193;-48
2023/07/31 22:04:04;;;;;;;;;;;16.20;99.90;;;;;;12494709;28;19932;-48
2023/07/31 22:10:05;;;;;;;;;;;16.20;99.90;;;;;;12497266;28;19928;-47
2023/07/31 22:16:07;;;;;;;;;;;16.00;99.90;;;;;;12470831;28;19928;-47
2023/07/31 22:22:09;;;;;;;;;;;15.90;99.90;;;;;;12496991;28;19929;-50
2023/07/31 22:28:11;;;;;;;;;;;15.90;99.90;;;;;;12500756;28;19927;-48
2023/07/31 22:34:22;;;;;;;;;;;15.90;99.90;;;;;;12496906;28;20272;-49
2023/07/31 22:40:23;;;;;;;;;;;15.80;99.90;;;;;;12493595;28;19956;-48
2023/07/31 22:46:25;;;;;;;;;;;15.80;99.90;;;;;;12487027;28;19929;-48
2023/07/31 22:52:27;;;;;;;;;;;15.80;99.90;;;;;;12506776;28;19967;-50
2023/07/31 22:58:29;;;;;;;;;;;16.00;99.90;;;;;;12494837;28;20008;-49
2023/07/31 23:04:31;;;;;;;;;;;16.10;99.90;;;;;;12532434;28;19925;-47
2023/07/31 23:10:33;;;;;;;;;;;16.10;99.90;;;;;;12501483;28;19921;-49
2023/07/31 23:16:35;;;;;;;;;;;16.10;99.90;;;;;;12485386;28;19960;-49
2023/07/31 23:22:37;;;;;;;;;;;16.10;99.90;;;;;;12507602;28;20329;-48
2023/07/31 23:28:39;;;;;;;;;;;16.10;99.90;;;;;;12515932;28;19924;-49
2023/07/31 23:34:42;;;;;;;;;;;16.10;99.90;;;;;;12492399;28;19991;-47
2023/07/31 23:40:43;;;;;;;;;;;16.10;99.90;;;;;;12497135;28;19966;-48
2023/07/31 23:46:48;;;;;;;;;;;16.20;99.90;;;;;;12478651;28;19924;-49
2023/07/31 23:52:50;;;;;;;;;;;16.20;99.90;;;;;;12505731;28;20011;-49
2023/07/31 23:58:52;;;;;;;;;;;16.20;99.90;;;;;;12516626;28;19947;-48
